Time;durP1;ratioP1;P1;durP2;ratioP2;P2;SDS_P1;SDS_P2;PMS_P1;PMS_P2;Temp;Humidity;BMP_temperature;BMP_pressure;BME280_temperature;BME280_humidity;BME280_pressure;Samples;Min_cycle;Max_cycle;Signal;HPM_P1;HPM_P2
2023/05/01 00:00:52;;;;;;;4.22;3.33;;;17.50;52.90;;;;;;6125671;23;20089;-68
2023/05/01 00:03:18;;;;;;;5.30;3.45;;;17.50;53.00;;;;;;6127164;23;20305;-68
2023/05/01 00:05:45;;;;;;;4.45;3.00;;;17.50;53.00;;;;;;6127598;23;20029;-68
2023/05/01 00:08:11;;;;;;;7.40;3.40;;;17.50;52.50;;;;;;6127456;23;19998;-68
2023/05/01 00:10:37;;;;;;;8.68;4.05;;;17.40;52.30;;;;;;6127233;23;20012;-68
2023/05/01 00:13:03;;;;;;;8.70;3.50;;;17.40;52.50;;;;;;6127572;23;20073;-68
2023/05/01 00:15:30;;;;;;;6.07;3.40;;;17.40;52.60;;;;;;6127549;23;20390;-69
2023/05/01 00:17:55;;;;;;;4.82;3.55;;;17.40;52.80;;;;;;6127340;23;20010;-68
2023/05/01 00:20:25;;;;;;;11.32;3.50;;;17.40;53.00;;;;;;6127008;23;20017;-68
2023/05/01 00:22:50;;;;;;;7.50;3.85;;;17.40;53.40;;;;;;6126888;23;20049;-67
2023/05/01 00:25:16;;;;;;;5.93;3.30;;;17.40;54.20;;;;;;6127145;23;20002;-68
2023/05/01 00:27:42;;;;;;;5.45;3.80;;;17.30;54.10;;;;;;6127331;23;20001;-68
2023/05/01 00:30:08;;;;;;;7.25;3.75;;;17.20;53.40;;;;;;6127644;23;20030;-68
2023/05/01 00:32:33;;;;;;;6.38;3.22;;;17.20;53.70;;;;;;6127219;23;20052;-68
2023/05/01 00:34:59;;;;;;;7.70;3.47;;;17.20;53.60;;;;;;6127177;23;20030;-68
2023/05/01 00:37:25;;;;;;;7.32;3.60;;;17.20;53.80;;;;;;6127287;23;20014;-68
2023/05/01 00:39:51;;;;;;;8.55;3.50;;;17.20;53.60;;;;;;6126930;23;20084;-68
2023/05/01 00:42:17;;;;;;;8.95;3.47;;;17.10;53.80;;;;;;6127023;23;20002;-67
2023/05/01 00:44:42;;;;;;;8.32;3.63;;;17.10;54.20;;;;;;6126973;23;20009;-68
2023/05/01 00:47:08;;;;;;;5.13;4.07;;;17.10;53.70;;;;;;6126867;23;20006;-68
2023/05/01 00:49:34;;;;;;;4.88;3.25;;;17.00;53.80;;;;;;6127032;23;19998;-68
2023/05/01 00:52:00;;;;;;;5.07;3.35;;;17.10;53.90;;;;;;6127054;23;20018;-68
2023/05/01 00:54:27;;;;;;;4.05;3.05;;;17.00;53.70;;;;;;6127016;23;20009;-68
2023/05/01 00:56:53;;;;;;;5.65;3.58;;;17.00;53.90;;;;;;6127019;23;19998;-68
2023/05/01 00:59:19;;;;;;;4.75;3.40;;;17.00;54.30;;;;;;6123688;23;20014;-68
2023/05/01 01:01:46;;;;;;;4.65;2.92;;;17.00;54.20;;;;;;6123553;23;20467;-68
2023/05/01 01:04:12;;;;;;;8.32;3.60;;;16.90;54.60;;;;;;6098149;23;20010;-68
2023/05/01 01:06:53;;;;;;;7.15;3.45;;;16.90;54.50;;;;;;6126068;23;20006;-68
2023/05/01 01:09:19;;;;;;;6.50;3.67;;;16.90;54.50;;;;;;6126832;23;20033;-68
2023/05/01 01:11:53;;;;;;;13.40;4.43;;;16.90;54.10;;;;;;6127245;23;20369;-67
2023/05/01 01:14:46;;;;;;;4.88;3.63;;;16.90;54.30;;;;;;6125733;23;20006;-68
2023/05/01 01:17:37;;;;;;;6.03;3.53;;;16.80;54.10;;;;;;6100699;23;20013;-68
2023/05/01 01:20:38;;;;;;;10.20;3.70;;;16.80;54.10;;;;;;6126402;23;20009;-68
2023/05/01 01:23:26;;;;;;;4.80;3.47;;;16.80;53.70;;;;;;6095149;23;20017;-68
2023/05/01 01:26:49;;;;;;;6.68;3.20;;;16.80;54.40;;;;;;6126701;23;19998;-68
2023/05/01 01:29:35;;;;;;;5.13;3.50;;;16.80;55.00;;;;;;6065868;23;20014;-68
2023/05/01 01:32:07;;;;;;;7.30;3.55;;;16.70;54.90;;;;;;6065759;23;20037;-68
2023/05/01 01:34:46;;;;;;;6.07;3.73;;;16.70;55.10;;;;;;6112785;23;20014;-68
2023/05/01 01:37:41;;;;;;;5.30;3.53;;;16.70;55.30;;;;;;6126003;23;20703;-68
2023/05/01 01:40:17;;;;;;;6.88;3.70;;;16.60;55.40;;;;;;6126375;23;20014;-68
2023/05/01 01:42:48;;;;;;;6.50;3.08;;;16.60;55.40;;;;;;6126041;23;20002;-67
2023/05/01 01:45:28;;;;;;;4.65;2.92;;;16.60;55.20;;;;;;6126574;23;19998;-68
2023/05/01 01:47:56;;;;;;;5.22;3.38;;;16.60;55.20;;;;;;6126457;23;20029;-68
2023/05/01 01:50:25;;;;;;;6.25;3.10;;;16.60;54.90;;;;;;6126166;23;20001;-68
2023/05/01 01:52:53;;;;;;;5.45;3.38;;;16.60;54.70;;;;;;6126495;23;20001;-68
2023/05/01 01:55:26;;;;;;;5.20;3.10;;;16.60;54.80;;;;;;6126650;23;20001;-68
2023/05/01 01:57:52;;;;;;;4.35;3.20;;;16.50;55.10;;;;;;6126791;23;20048;-68
2023/05/01 02:00:20;;;;;;;4.97;3.08;;;16.60;55.20;;;;;;6126122;23;20013;-68
2023/05/01 02:02:47;;;;;;;4.47;3.00;;;16.50;54.60;;;;;;6126463;23;20099;-67
2023/05/01 02:05:15;;;;;;;4.88;3.10;;;16.50;54.60;;;;;;6126299;23;20002;-68
2023/05/01 02:07:44;;;;;;;9.00;3.63;;;16.50;55.20;;;;;;6126236;23;20049;-68
2023/05/01 02:10:13;;;;;;;4.15;3.25;;;16.50;54.80;;;;;;6125936;23;20006;-68
2023/05/01 02:12:43;;;;;;;5.95;3.60;;;16.50;55.00;;;;;;6126625;23;20056;-68
2023/05/01 02:15:10;;;;;;;5.50;3.50;;;16.50;55.80;;;;;;6126283;23;20024;-68
2023/05/01 02:17:38;;;;;;;5.50;3.13;;;16.50;55.70;;;;;;6126322;23;20432;-68
2023/05/01 02:20:06;;;;;;;5.85;3.75;;;16.40;55.60;;;;;;6125806;23;20009;-68
2023/05/01 02:22:33;;;;;;;4.43;3.22;;;16.40;55.50;;;;;;6126010;23;20080;-68
2023/05/01 02:25:00;;;;;;;11.93;3.85;;;16.30;55.70;;;;;;6126068;23;20068;-68
2023/05/01 02:27:33;;;;;;;4.95;3.20;;;16.30;56.00;;;;;;6126166;23;20019;-67
2023/05/01 02:29:59;;;;;;;5.53;3.45;;;16.20;56.30;;;;;;6124541;23;19998;-68
2023/05/01 02:32:25;;;;;;;6.40;4.18;;;16.20;56.20;;;;;;6125690;23;20089;-68
2023/05/01 02:34:51;;;;;;;4.93;3.38;;;16.20;56.20;;;;;;6126215;23;19998;-68
2023/05/01 02:37:16;;;;;;;6.32;3.20;;;16.20;56.40;;;;;;6126328;23;20013;-67
2023/05/01 02:39:42;;;;;;;5.88;3.42;;;16.20;56.40;;;;;;6125994;23;20355;-68
2023/05/01 02:42:11;;;;;;;4.57;3.17;;;16.20;56.50;;;;;;6125746;23;20060;-68
2023/05/01 02:44:56;;;;;;;9.02;3.60;;;16.10;56.70;;;;;;6126030;23;20032;-68
2023/05/01 02:47:23;;;;;;;6.35;3.50;;;16.20;57.20;;;;;;6126373;23;20052;-68
2023/05/01 02:49:51;;;;;;;4.03;3.13;;;16.10;57.30;;;;;;6126061;23;20028;-68
2023/05/01 02:52:18;;;;;;;5.75;3.10;;;16.10;57.20;;;;;;6125691;23;20024;-69
2023/05/01 02:54:45;;;;;;;4.22;3.08;;;16.10;57.20;;;;;;6126144;23;20002;-71
2023/05/01 02:57:11;;;;;;;5.75;3.53;;;16.00;57.40;;;;;;6126105;23;20010;-70
2023/05/01 02:59:37;;;;;;;4.28;3.17;;;16.00;57.50;;;;;;6099766;23;20016;-69
2023/05/01 03:02:03;;;;;;;5.80;3.47;;;16.00;57.60;;;;;;6125831;23;20002;-68
2023/05/01 03:04:29;;;;;;;4.43;2.88;;;15.90;57.10;;;;;;6125874;23;20030;-67
2023/05/01 03:06:55;;;;;;;4.97;2.85;;;15.90;57.00;;;;;;6125854;23;19998;-67
2023/05/01 03:09:21;;;;;;;5.10;3.10;;;15.90;56.70;;;;;;6126113;23;20033;-68
2023/05/01 03:11:47;;;;;;;5.32;2.92;;;16.00;56.40;;;;;;6125718;23;20429;-68
2023/05/01 03:14:13;;;;;;;6.75;2.85;;;15.90;56.90;;;;;;6125983;23;20016;-68
2023/05/01 03:16:39;;;;;;;3.35;2.50;;;15.90;56.40;;;;;;6125888;23;20001;-68
2023/05/01 03:19:06;;;;;;;7.05;2.95;;;15.90;56.60;;;;;;6125662;23;20440;-67
2023/05/01 03:21:32;;;;;;;4.63;3.00;;;15.90;57.00;;;;;;6125736;23;20097;-68
2023/05/01 03:23:58;;;;;;;4.68;2.70;;;15.90;57.30;;;;;;6125921;23;20061;-68
2023/05/01 03:26:24;;;;;;;6.22;2.38;;;15.90;57.20;;;;;;6125621;23;20002;-68
2023/05/01 03:28:49;;;;;;;7.25;2.70;;;15.90;57.60;;;;;;6125576;23;20010;-69
2023/05/01 03:31:15;;;;;;;4.53;2.90;;;15.80;57.40;;;;;;6125780;23;20002;-68
2023/05/01 03:33:41;;;;;;;5.93;3.08;;;15.80;57.80;;;;;;6125333;23;20006;-68
2023/05/01 03:36:10;;;;;;;7.18;3.15;;;15.80;57.70;;;;;;6126697;23;20029;-67
2023/05/01 03:38:35;;;;;;;5.53;2.85;;;15.80;57.90;;;;;;6128040;23;20025;-68
2023/05/01 03:41:01;;;;;;;5.43;3.30;;;15.80;57.80;;;;;;6127629;23;20309;-68
2023/05/01 03:43:27;;;;;;;4.30;2.97;;;15.70;57.90;;;;;;6127437;23;19998;-68
2023/05/01 03:45:52;;;;;;;7.43;3.28;;;15.70;57.70;;;;;;6127549;23;20005;-68
2023/05/01 03:48:19;;;;;;;5.80;2.85;;;15.70;57.60;;;;;;6127243;23;20006;-68
2023/05/01 03:50:45;;;;;;;5.50;2.90;;;15.70;57.50;;;;;;6127646;23;20018;-68
2023/05/01 03:53:12;;;;;;;4.35;2.55;;;15.70;57.90;;;;;;6127802;23;20321;-68
2023/05/01 03:55:39;;;;;;;3.72;2.50;;;15.70;57.40;;;;;;6127333;23;20014;-67
2023/05/01 03:58:05;;;;;;;4.13;2.80;;;15.70;57.60;;;;;;6127281;23;20048;-67
2023/05/01 04:00:32;;;;;;;9.75;2.80;;;15.70;57.30;;;;;;6127432;23;20014;-70
2023/05/01 04:02:57;;;;;;;5.82;3.13;;;15.70;57.60;;;;;;6127558;23;20001;-69
2023/05/01 04:05:23;;;;;;;5.05;2.50;;;15.60;57.60;;;;;;6127136;23;20064;-68
2023/05/01 04:07:49;;;;;;;12.65;2.80;;;15.60;57.90;;;;;;6125640;23;20013;-68
2023/05/01 04:10:16;;;;;;;4.75;3.03;;;15.60;57.70;;;;;;6127453;23;20002;-68
2023/05/01 04:12:42;;;;;;;4.82;3.10;;;15.60;58.60;;;;;;6127316;23;20060;-68
2023/05/01 04:15:08;;;;;;;3.55;2.80;;;15.60;57.80;;;;;;6127425;23;20006;-68
2023/05/01 04:17:35;;;;;;;7.75;2.70;;;15.60;57.90;;;;;;6127554;23;20309;-67
2023/05/01 04:20:03;;;;;;;4.55;2.80;;;15.60;58.00;;;;;;6127233;23;20010;-67
2023/05/01 04:22:29;;;;;;;5.25;2.60;;;15.60;57.80;;;;;;6127691;23;20009;-68
2023/05/01 04:24:55;;;;;;;4.75;3.00;;;15.60;57.70;;;;;;6127384;23;20425;-67
2023/05/01 04:27:21;;;;;;;4.07;2.65;;;15.70;57.70;;;;;;6127113;23;20018;-67
2023/05/01 04:29:46;;;;;;;5.60;2.58;;;15.70;58.10;;;;;;6127760;23;20006;-68
2023/05/01 04:32:12;;;;;;;7.60;2.60;;;15.70;58.30;;;;;;6127425;23;20455;-68
2023/05/01 04:34:38;;;;;;;10.75;2.50;;;15.70;59.00;;;;;;6101392;23;20010;-68
2023/05/01 04:37:06;;;;;;;4.40;2.17;;;15.70;58.70;;;;;;6127382;23;20052;-67
2023/05/01 04:39:32;;;;;;;5.65;2.83;;;15.70;59.40;;;;;;6127318;23;20050;-68
2023/05/01 04:41:57;;;;;;;5.63;2.60;;;15.70;58.60;;;;;;6127151;23;20006;-68
2023/05/01 04:44:24;;;;;;;7.47;2.47;;;15.70;58.60;;;;;;6127356;23;20049;-67
2023/05/01 04:46:50;;;;;;;4.13;2.22;;;15.70;59.20;;;;;;6127425;23;20002;-68
2023/05/01 04:49:15;;;;;;;6.22;2.33;;;15.70;59.40;;;;;;6127649;23;20018;-68
2023/05/01 04:51:41;;;;;;;4.63;2.72;;;15.70;59.60;;;;;;6127152;23;20029;-68
2023/05/01 04:54:07;;;;;;;3.60;2.60;;;15.70;59.90;;;;;;6101320;23;20106;-68
2023/05/01 04:56:33;;;;;;;3.40;2.30;;;15.70;59.20;;;;;;6127312;23;20038;-68
2023/05/01 04:58:59;;;;;;;5.03;2.80;;;15.70;59.00;;;;;;6127363;23;20081;-68
2023/05/01 05:01:24;;;;;;;9.50;2.60;;;15.70;59.00;;;;;;6126751;23;20088;-69
2023/05/01 05:03:50;;;;;;;7.53;2.80;;;15.70;58.50;;;;;;6127598;23;20377;-69
2023/05/01 05:06:16;;;;;;;3.97;2.80;;;15.70;58.00;;;;;;6127143;23;20465;-69
2023/05/01 05:08:42;;;;;;;5.43;2.95;;;15.80;57.80;;;;;;6127083;23;20006;-69
2023/05/01 05:11:07;;;;;;;7.68;3.17;;;15.80;57.40;;;;;;6126942;23;20087;-71
2023/05/01 05:13:33;;;;;;;5.53;2.92;;;15.80;57.50;;;;;;6126712;23;20372;-70
2023/05/01 05:15:59;;;;;;;7.60;3.60;;;15.80;57.60;;;;;;6126973;23;20006;-68
2023/05/01 05:18:25;;;;;;;4.50;3.10;;;15.80;57.70;;;;;;6127526;23;20077;-68
2023/05/01 05:20:51;;;;;;;4.50;2.65;;;15.80;57.90;;;;;;6126664;23;20046;-69
2023/05/01 05:23:16;;;;;;;6.15;2.85;;;15.90;57.80;;;;;;6126676;23;20005;-68
2023/05/01 05:25:42;;;;;;;9.60;2.90;;;15.90;57.80;;;;;;6126666;23;20006;-69
2023/05/01 05:28:08;;;;;;;4.43;2.95;;;15.90;58.00;;;;;;6126944;23;19998;-69
2023/05/01 05:30:34;;;;;;;5.50;2.63;;;15.90;58.50;;;;;;6126886;23;20014;-68
2023/05/01 05:33:00;;;;;;;8.77;2.80;;;16.00;58.10;;;;;;6127081;23;20009;-67
2023/05/01 05:35:26;;;;;;;6.05;2.50;;;16.00;58.10;;;;;;6127146;23;20462;-68
2023/05/01 05:37:51;;;;;;;6.18;2.42;;;16.00;57.90;;;;;;6127640;23;20013;-67
2023/05/01 05:40:18;;;;;;;4.10;2.15;;;16.10;58.20;;;;;;6127327;23;20089;-68
2023/05/01 05:42:44;;;;;;;4.47;2.25;;;16.10;58.00;;;;;;6100652;23;20400;-68
2023/05/01 05:45:09;;;;;;;7.68;2.10;;;16.20;59.30;;;;;;6126673;23;19998;-68
2023/05/01 05:47:35;;;;;;;5.40;2.30;;;16.20;58.80;;;;;;6126583;23;20009;-68
2023/05/01 05:50:01;;;;;;;7.53;2.30;;;16.30;58.30;;;;;;6126703;23;20397;-67
2023/05/01 05:52:27;;;;;;;10.77;2.63;;;16.30;58.30;;;;;;6126416;23;20100;-68
2023/05/01 05:54:52;;;;;;;4.80;2.47;;;16.30;58.20;;;;;;6126702;23;20046;-68
2023/05/01 05:57:18;;;;;;;5.75;2.50;;;16.30;58.00;;;;;;6126631;23;20010;-68
2023/05/01 05:59:45;;;;;;;4.63;2.38;;;16.40;57.40;;;;;;6125794;23;20056;-68
2023/05/01 06:02:11;;;;;;;6.28;2.90;;;16.40;57.30;;;;;;6126640;23;20002;-67
2023/05/01 06:04:36;;;;;;;4.30;2.45;;;16.50;57.10;;;;;;6126234;23;20448;-67
2023/05/01 06:07:02;;;;;;;5.00;2.60;;;16.50;56.80;;;;;;6126257;23;20064;-68
2023/05/01 06:09:28;;;;;;;6.07;2.53;;;16.60;57.10;;;;;;6126576;23;20010;-68
2023/05/01 06:11:54;;;;;;;4.28;2.83;;;16.60;56.80;;;;;;6126267;23;20053;-68
2023/05/01 06:14:20;;;;;;;7.43;2.60;;;16.70;56.30;;;;;;6126437;23;20425;-67
2023/05/01 06:16:46;;;;;;;4.72;2.90;;;16.70;56.40;;;;;;6126493;23;19998;-67
2023/05/01 06:19:12;;;;;;;8.25;2.50;;;16.80;55.60;;;;;;6126244;23;20488;-68
2023/05/01 06:21:37;;;;;;;4.57;2.55;;;16.80;55.90;;;;;;6125911;23;20014;-68
2023/05/01 06:24:03;;;;;;;6.53;2.80;;;16.80;55.00;;;;;;6126234;23;20320;-68
2023/05/01 06:26:30;;;;;;;3.92;2.50;;;16.80;55.70;;;;;;6125974;23;20002;-67
2023/05/01 06:28:55;;;;;;;5.50;2.83;;;16.80;55.50;;;;;;6126076;23;19998;-67
2023/05/01 06:31:21;;;;;;;5.35;2.88;;;16.90;55.40;;;;;;6126123;23;20012;-68
2023/05/01 06:33:47;;;;;;;4.88;2.78;;;16.90;55.10;;;;;;6126201;23;20013;-68
2023/05/01 06:36:13;;;;;;;3.75;2.28;;;16.90;54.80;;;;;;6126533;23;20006;-68
2023/05/01 06:38:39;;;;;;;8.18;2.70;;;16.90;55.40;;;;;;6126043;23;20076;-69
2023/05/01 06:41:05;;;;;;;5.32;2.40;;;16.90;54.90;;;;;;6125891;23;20017;-67
2023/05/01 06:43:32;;;;;;;5.00;2.35;;;17.00;55.60;;;;;;6126275;23;20357;-68
2023/05/01 06:45:58;;;;;;;4.30;2.25;;;17.00;55.50;;;;;;6125978;23;20425;-68
2023/05/01 06:48:23;;;;;;;3.88;2.50;;;17.10;54.90;;;;;;6126159;23;20036;-67
2023/05/01 06:50:49;;;;;;;4.90;2.60;;;17.20;55.00;;;;;;6125884;23;20093;-68
2023/05/01 06:53:15;;;;;;;12.73;2.20;;;17.20;55.00;;;;;;6099824;23;20044;-68
2023/05/01 06:55:41;;;;;;;4.57;2.40;;;17.30;54.90;;;;;;6125952;23;20032;-68
2023/05/01 06:58:07;;;;;;;6.20;2.35;;;17.30;54.10;;;;;;6125940;23;20037;-67
2023/05/01 07:00:36;;;;;;;5.32;2.10;;;17.40;54.60;;;;;;6125544;23;20010;-68
2023/05/01 07:03:02;;;;;;;5.95;2.17;;;17.50;54.10;;;;;;6124906;23;20006;-67
2023/05/01 07:05:29;;;;;;;4.68;1.95;;;17.50;53.20;;;;;;6126019;23;20372;-67
2023/05/01 07:07:54;;;;;;;3.65;2.00;;;17.60;53.60;;;;;;6125930;23;19998;-68
2023/05/01 07:10:20;;;;;;;9.93;2.28;;;17.60;53.30;;;;;;6126050;23;20012;-67
2023/05/01 07:12:46;;;;;;;3.20;1.80;;;17.60;53.00;;;;;;6125393;23;20005;-67
2023/05/01 07:15:15;;;;;;;3.67;1.60;;;17.70;52.70;;;;;;6125310;23;20052;-68
2023/05/01 07:17:40;;;;;;;3.67;2.00;;;17.70;53.30;;;;;;6125653;23;20040;-67
2023/05/01 07:20:07;;;;;;;2.83;1.73;;;17.80;53.90;;;;;;6125335;23;20332;-67
2023/05/01 07:22:33;;;;;;;3.42;1.70;;;17.80;53.00;;;;;;6125869;23;19998;-67
2023/05/01 07:25:00;;;;;;;3.60;1.98;;;17.90;51.80;;;;;;6125244;23;20009;-68
2023/05/01 07:27:27;;;;;;;8.43;2.30;;;18.00;52.60;;;;;;6125852;23;20006;-68
2023/05/01 07:29:55;;;;;;;3.35;1.83;;;18.00;53.00;;;;;;6123018;23;20428;-68
2023/05/01 07:32:20;;;;;;;3.90;2.15;;;18.00;53.20;;;;;;6124767;23;20017;-67
2023/05/01 07:34:46;;;;;;;3.90;1.55;;;18.10;53.90;;;;;;6124900;23;20006;-67
2023/05/01 07:37:12;;;;;;;3.10;1.45;;;18.10;53.90;;;;;;6124638;23;20076;-67
2023/05/01 07:39:37;;;;;;;4.70;2.05;;;18.10;51.40;;;;;;6124707;23;20010;-66
2023/05/01 07:42:03;;;;;;;5.03;1.25;;;18.20;52.20;;;;;;6124864;23;20037;-67
2023/05/01 07:44:29;;;;;;;3.13;1.38;;;18.30;51.60;;;;;;6124945;23;20002;-67
2023/05/01 07:47:01;;;;;;;2.88;1.40;;;18.40;52.40;;;;;;6123855;23;20014;-67
2023/05/01 07:49:26;;;;;;;6.13;1.55;;;18.50;52.30;;;;;;6125450;23;20053;-67
2023/05/01 07:51:54;;;;;;;4.45;1.50;;;18.60;52.00;;;;;;6125274;23;20026;-67
2023/05/01 07:54:21;;;;;;;1.98;1.17;;;18.70;51.70;;;;;;6125503;23;20485;-66
2023/05/01 07:56:47;;;;;;;2.33;1.50;;;18.80;51.60;;;;;;6125199;23;20333;-67
2023/05/01 07:59:14;;;;;;;6.40;1.40;;;18.90;52.00;;;;;;6125362;23;20002;-67
2023/05/01 08:01:40;;;;;;;2.33;1.20;;;19.00;50.80;;;;;;6125343;23;20014;-67
2023/05/01 08:04:06;;;;;;;2.47;1.50;;;19.10;51.40;;;;;;6125223;23;20439;-67
2023/05/01 08:06:32;;;;;;;2.53;1.60;;;19.20;50.30;;;;;;6125196;23;20085;-67
2023/05/01 08:08:58;;;;;;;3.25;1.40;;;19.30;50.00;;;;;;6125773;23;20036;-67
2023/05/01 08:11:25;;;;;;;3.10;1.20;;;19.50;50.30;;;;;;6124748;23;20002;-67
2023/05/01 08:13:51;;;;;;;2.22;1.08;;;19.60;50.90;;;;;;6125607;23;20010;-67
2023/05/01 08:16:18;;;;;;;2.25;1.33;;;19.60;50.60;;;;;;6125618;23;20434;-67
2023/05/01 08:18:45;;;;;;;4.47;1.40;;;19.70;50.00;;;;;;6125614;23;20017;-67
2023/05/01 08:21:11;;;;;;;2.97;1.50;;;19.70;50.00;;;;;;6125885;23;20025;-67
2023/05/01 08:23:37;;;;;;;8.57;1.50;;;19.80;49.50;;;;;;6126660;23;20044;-67
2023/05/01 08:26:03;;;;;;;2.45;1.40;;;19.90;49.70;;;;;;6127257;23;20336;-67
2023/05/01 08:28:28;;;;;;;1.92;1.30;;;20.00;49.70;;;;;;6126554;23;20009;-67
2023/05/01 08:30:54;;;;;;;2.55;1.40;;;20.00;49.20;;;;;;6127075;23;20002;-69
2023/05/01 08:33:20;;;;;;;1.60;1.13;;;20.10;48.40;;;;;;6127597;23;20002;-67
2023/05/01 08:35:46;;;;;;;2.33;1.23;;;20.20;48.70;;;;;;6127243;23;20029;-67
2023/05/01 08:38:11;;;;;;;3.83;1.35;;;20.30;48.80;;;;;;6127455;23;20405;-67
2023/05/01 08:40:38;;;;;;;2.58;1.20;;;20.40;47.90;;;;;;6127833;23;20042;-67
2023/05/01 08:43:04;;;;;;;3.25;1.20;;;20.40;47.90;;;;;;6126954;23;19998;-67
2023/05/01 08:45:36;;;;;;;2.50;1.60;;;20.50;47.80;;;;;;6127747;23;20053;-67
2023/05/01 08:48:12;;;;;;;4.32;1.40;;;20.50;48.30;;;;;;6127396;23;19998;-67
2023/05/01 08:50:39;;;;;;;2.90;1.45;;;20.60;48.30;;;;;;6126879;23;20041;-67
2023/05/01 08:53:07;;;;;;;1.85;1.20;;;20.60;47.60;;;;;;6127002;23;20002;-67
2023/05/01 08:55:35;;;;;;;5.18;1.73;;;20.60;47.40;;;;;;6126935;23;20005;-67
2023/05/01 08:58:02;;;;;;;10.27;2.15;;;20.60;46.60;;;;;;6127559;23;20367;-67
2023/05/01 09:00:30;;;;;;;4.32;1.42;;;20.60;46.20;;;;;;6127131;23;20014;-66
2023/05/01 09:02:59;;;;;;;2.70;1.35;;;20.50;47.10;;;;;;6126769;23;20002;-67
2023/05/01 09:05:25;;;;;;;2.15;1.40;;;20.40;47.20;;;;;;6100998;23;20413;-67
2023/05/01 09:07:51;;;;;;;3.35;1.30;;;20.40;47.30;;;;;;6127361;23;20302;-67
2023/05/01 09:10:20;;;;;;;5.32;1.58;;;20.40;47.60;;;;;;6127159;23;20061;-67
2023/05/01 09:12:53;;;;;;;2.05;1.30;;;20.40;47.10;;;;;;6127182;23;20030;-67
2023/05/01 09:15:19;;;;;;;2.85;1.50;;;20.40;47.40;;;;;;6127212;23;20001;-67
2023/05/01 09:17:44;;;;;;;6.03;1.45;;;20.40;46.80;;;;;;6126994;23;20013;-67
2023/05/01 09:20:10;;;;;;;3.38;1.33;;;20.40;46.90;;;;;;6127179;23;20006;-67
2023/05/01 09:22:36;;;;;;;4.72;1.25;;;20.40;46.80;;;;;;6126986;23;20002;-67
2023/05/01 09:25:03;;;;;;;4.60;1.58;;;20.50;47.50;;;;;;6127089;23;20029;-67
2023/05/01 09:27:33;;;;;;;3.38;1.50;;;20.50;48.20;;;;;;6126733;23;20491;-67
2023/05/01 09:29:59;;;;;;;4.50;1.65;;;20.60;48.30;;;;;;6127107;23;20002;-67
2023/05/01 09:32:29;;;;;;;4.07;1.58;;;20.60;47.40;;;;;;6126519;23;20437;-66
2023/05/01 09:35:12;;;;;;;6.70;1.90;;;20.60;46.40;;;;;;6126023;23;19998;-67
2023/05/01 09:37:38;;;;;;;5.13;1.40;;;20.60;47.20;;;;;;6127110;23;20010;-67
2023/05/01 09:40:06;;;;;;;2.40;1.60;;;20.60;47.40;;;;;;6127073;23;20002;-68
2023/05/01 09:42:33;;;;;;;3.55;1.75;;;20.70;46.60;;;;;;6126132;23;20030;-67
2023/05/01 09:45:00;;;;;;;4.55;1.52;;;20.70;48.50;;;;;;6100544;23;20016;-67
2023/05/01 09:47:29;;;;;;;5.65;1.52;;;20.80;47.80;;;;;;6126473;23;20421;-66
2023/05/01 09:49:56;;;;;;;6.80;1.90;;;20.80;47.40;;;;;;6126429;23;20006;-67
2023/05/01 09:52:30;;;;;;;2.58;1.52;;;20.80;46.40;;;;;;6126563;23;20049;-67
2023/05/01 09:55:10;;;;;;;2.20;1.30;;;20.90;47.20;;;;;;6126899;23;20006;-67
2023/05/01 09:57:39;;;;;;;3.85;1.50;;;20.80;46.60;;;;;;6126604;23;20029;-67
2023/05/01 10:00:07;;;;;;;2.38;1.48;;;20.80;46.00;;;;;;6126418;23;20012;-67
2023/05/01 10:02:33;;;;;;;4.93;1.60;;;20.80;47.20;;;;;;6126504;23;20010;-67
2023/05/01 10:04:59;;;;;;;6.43;1.80;;;20.90;47.60;;;;;;6126357;23;20002;-66
2023/05/01 10:07:26;;;;;;;6.85;1.90;;;20.90;47.60;;;;;;6126226;23;20061;-66
2023/05/01 10:09:55;;;;;;;3.28;1.73;;;20.90;46.90;;;;;;6126457;23;20009;-67
2023/05/01 10:12:27;;;;;;;5.35;1.63;;;20.90;47.00;;;;;;6126665;23;20002;-67
2023/05/01 10:14:55;;;;;;;5.15;1.75;;;21.00;46.90;;;;;;6126569;23;20029;-67
2023/05/01 10:17:21;;;;;;;3.60;1.67;;;21.00;46.20;;;;;;6126557;23;20031;-67
2023/05/01 10:19:47;;;;;;;6.15;2.78;;;21.10;46.90;;;;;;6124984;23;20201;-67
2023/05/01 10:22:14;;;;;;;3.90;1.88;;;21.10;47.10;;;;;;6125154;23;20061;-69
2023/05/01 10:24:41;;;;;;;3.05;1.77;;;21.10;48.00;;;;;;6125858;23;19998;-70
2023/05/01 10:27:07;;;;;;;6.00;3.20;;;21.10;46.80;;;;;;6125343;23;20009;-67
2023/05/01 10:29:37;;;;;;;16.17;7.28;;;21.10;47.50;;;;;;6125690;23;20002;-69
2023/05/01 10:32:06;;;;;;;23.80;11.48;;;21.10;46.70;;;;;;6125743;23;20005;-70
2023/05/01 10:34:37;;;;;;;18.55;9.77;;;21.20;46.90;;;;;;6125623;23;20006;-69
2023/05/01 10:37:12;;;;;;;5.55;2.10;;;21.20;47.20;;;;;;6125613;23;20005;-67
2023/05/01 10:39:38;;;;;;;7.18;2.00;;;21.10;46.00;;;;;;6125819;23;20017;-66
2023/05/01 10:42:15;;;;;;;5.95;1.80;;;21.10;46.10;;;;;;6126204;23;20014;-66
2023/05/01 10:44:42;;;;;;;4.63;3.00;;;21.20;46.80;;;;;;6125660;23;20503;-67
2023/05/01 10:47:26;;;;;;;3.78;1.92;;;21.20;47.60;;;;;;6125928;23;20002;-67
2023/05/01 10:50:12;;;;;;;2.78;1.50;;;21.20;46.40;;;;;;6126019;23;20017;-67
2023/05/01 10:53:08;;;;;;;3.10;1.77;;;21.20;46.10;;;;;;6125662;23;20017;-66
2023/05/01 10:55:42;;;;;;;3.10;1.50;;;21.20;45.80;;;;;;6125705;23;20113;-67
2023/05/01 10:58:09;;;;;;;4.07;1.85;;;21.30;46.20;;;;;;6126459;23;20310;-66
2023/05/01 11:00:34;;;;;;;5.63;2.13;;;21.30;45.70;;;;;;6126258;23;20017;-67
2023/05/01 11:03:22;;;;;;;3.70;2.33;;;21.40;46.90;;;;;;6126275;23;20009;-67
2023/05/01 11:06:01;;;;;;;5.05;2.28;;;21.60;47.10;;;;;;6125844;23;20021;-66
2023/05/01 11:08:32;;;;;;;4.05;2.17;;;21.70;47.50;;;;;;6125462;23;20005;-66
2023/05/01 11:11:20;;;;;;;6.07;1.95;;;21.90;47.10;;;;;;6124678;23;20006;-67
2023/05/01 11:14:07;;;;;;;5.10;2.75;;;22.10;45.90;;;;;;6122422;23;20006;-66
2023/05/01 11:16:39;;;;;;;6.63;3.30;;;22.20;46.30;;;;;;6122462;23;20044;-66
2023/05/01 11:19:20;;;;;;;;;;;22.30;45.30;;;;;;6125786;23;20004;-66
2023/05/01 11:21:46;;;;;;;2.63;2.03;;;22.30;44.90;;;;;;6125584;23;19909;-66
2023/05/01 11:24:11;;;;;;;3.90;2.58;;;22.30;44.50;;;;;;6125306;23;20002;-65
2023/05/01 11:26:39;;;;;;;3.85;2.42;;;22.40;45.10;;;;;;6123910;23;20020;-66
2023/05/01 11:29:06;;;;;;;5.07;2.95;;;22.40;45.50;;;;;;6125594;23;20009;-65
2023/05/01 11:31:32;;;;;;;8.23;2.40;;;22.40;44.40;;;;;;6125952;23;20429;-65
2023/05/01 11:33:59;;;;;;;4.15;1.98;;;22.40;45.00;;;;;;6125424;23;20061;-66
2023/05/01 11:36:28;;;;;;;2.97;1.80;;;22.40;44.60;;;;;;6125689;23;20013;-66
2023/05/01 11:38:58;;;;;;;2.78;1.60;;;22.50;44.30;;;;;;6125710;23;20002;-65
2023/05/01 11:41:27;;;;;;;2.63;1.80;;;22.50;44.60;;;;;;6125235;23;20018;-66
2023/05/01 11:43:55;;;;;;;3.25;1.63;;;22.50;45.40;;;;;;6125834;23;20002;-67
2023/05/01 11:46:31;;;;;;;3.88;1.70;;;22.50;45.60;;;;;;6125587;23;20013;-66
2023/05/01 11:49:00;;;;;;;1.73;1.42;;;22.60;45.70;;;;;;6125414;23;20302;-66
2023/05/01 11:51:26;;;;;;;4.65;1.90;;;22.60;45.20;;;;;;6125565;23;20026;-66
2023/05/01 11:54:04;;;;;;;3.58;1.63;;;22.70;45.40;;;;;;6125642;23;20006;-66
2023/05/01 11:56:31;;;;;;;6.93;2.10;;;22.70;44.50;;;;;;6125361;23;20006;-67
2023/05/01 11:58:59;;;;;;;3.92;1.92;;;22.70;44.70;;;;;;6127210;23;20006;-66
2023/05/01 12:01:38;;;;;;;3.58;1.70;;;22.70;44.50;;;;;;6127722;23;20052;-66
2023/05/01 12:04:09;;;;;;;2.38;1.52;;;22.60;44.80;;;;;;6127749;23;20001;-66
2023/05/01 12:06:43;;;;;;;3.85;1.67;;;22.60;46.10;;;;;;6126741;23;20444;-66
2023/05/01 12:09:16;;;;;;;3.13;1.77;;;22.60;45.60;;;;;;6124119;23;20564;-66
2023/05/01 12:11:42;;;;;;;2.80;1.70;;;22.60;45.30;;;;;;6124669;23;20060;-66
2023/05/01 12:14:08;;;;;;;2.97;1.67;;;22.60;45.20;;;;;;6127330;23;20006;-66
2023/05/01 12:16:35;;;;;;;11.95;2.80;;;22.60;46.00;;;;;;6127319;23;20005;-67
2023/05/01 12:19:01;;;;;;;5.95;1.88;;;22.60;45.30;;;;;;6127152;23;20002;-67
2023/05/01 12:21:27;;;;;;;5.15;1.80;;;22.60;45.80;;;;;;6127430;23;20018;-66
2023/05/01 12:23:53;;;;;;;2.67;1.83;;;22.60;45.60;;;;;;6127472;23;20010;-67
2023/05/01 12:26:26;;;;;;;8.10;2.08;;;22.50;45.70;;;;;;6127358;23;20002;-66
2023/05/01 12:29:00;;;;;;;1.98;1.67;;;22.60;46.10;;;;;;6127499;23;19998;-66
2023/05/01 12:31:26;;;;;;;2.03;1.52;;;22.50;45.40;;;;;;6127420;23;20067;-66
2023/05/01 12:33:57;;;;;;;5.43;2.10;;;22.40;44.90;;;;;;6127155;23;20429;-65
2023/05/01 12:36:26;;;;;;;2.97;1.73;;;22.40;45.70;;;;;;6127085;23;20032;-66
2023/05/01 12:39:08;;;;;;;2.00;1.45;;;22.30;45.80;;;;;;6127611;23;20040;-66
2023/05/01 12:41:39;;;;;;;3.88;1.95;;;22.30;46.30;;;;;;6127082;23;20101;-66
2023/05/01 12:44:25;;;;;;;4.82;1.80;;;22.30;46.60;;;;;;6127295;23;20006;-66
2023/05/01 12:47:07;;;;;;;4.28;1.65;;;22.20;45.60;;;;;;6127278;23;20448;-66
2023/05/01 12:49:37;;;;;;;2.15;1.70;;;22.30;45.80;;;;;;6127084;23;20073;-66
2023/05/01 12:52:06;;;;;;;4.80;1.55;;;22.20;45.30;;;;;;6127232;23;20356;-66